sensor_id;sensor_type;location;lat;lon;timestamp;P1;durP1;ratioP1;P2;durP2;ratioP2
18899;SDS011;9582;52.018;6.306;2024-02-21T00:01:14;23.33;;;13.07;;
18899;SDS011;9582;52.018;6.306;2024-02-21T00:03:41;25.73;;;12.07;;
18899;SDS011;9582;52.018;6.306;2024-02-21T00:06:08;27.10;;;12.93;;
18899;SDS011;9582;52.018;6.306;2024-02-21T00:08:36;21.10;;;12.00;;
18899;SDS011;9582;52.018;6.306;2024-02-21T00:11:03;23.03;;;12.07;;
18899;SDS011;9582;52.018;6.306;2024-02-21T00:13:30;25.93;;;14.20;;
18899;SDS011;9582;52.018;6.306;2024-02-21T00:15:56;21.23;;;12.10;;
18899;SDS011;9582;52.018;6.306;2024-02-21T00:18:23;24.53;;;13.57;;
18899;SDS011;9582;52.018;6.306;2024-02-21T00:20:49;27.70;;;12.00;;
18899;SDS011;9582;52.018;6.306;2024-02-21T00:23:16;25.53;;;13.87;;
18899;SDS011;9582;52.018;6.306;2024-02-21T00:25:44;27.10;;;14.50;;
18899;SDS011;9582;52.018;6.306;2024-02-21T00:28:11;21.27;;;12.10;;
18899;SDS011;9582;52.018;6.306;2024-02-21T00:30:38;22.70;;;12.37;;
18899;SDS011;9582;52.018;6.306;2024-02-21T00:33:04;21.07;;;11.53;;
18899;SDS011;9582;52.018;6.306;2024-02-21T00:35:31;22.10;;;12.57;;
18899;SDS011;9582;52.018;6.306;2024-02-21T00:37:58;26.30;;;12.60;;
18899;SDS011;9582;52.018;6.306;2024-02-21T00:40:24;24.87;;;13.43;;
18899;SDS011;9582;52.018;6.306;2024-02-21T00:42:52;25.10;;;12.57;;
18899;SDS011;9582;52.018;6.306;2024-02-21T00:45:19;25.30;;;13.03;;
18899;SDS011;9582;52.018;6.306;2024-02-21T00:47:46;23.63;;;13.23;;
18899;SDS011;9582;52.018;6.306;2024-02-21T00:50:12;26.23;;;12.40;;
18899;SDS011;9582;52.018;6.306;2024-02-21T00:52:39;26.00;;;13.30;;
18899;SDS011;9582;52.018;6.306;2024-02-21T00:55:06;25.83;;;12.40;;
18899;SDS011;9582;52.018;6.306;2024-02-21T00:57:34;24.27;;;13.53;;
18899;SDS011;9582;52.018;6.306;2024-02-21T01:00:02;24.70;;;13.13;;
18899;SDS011;9582;52.018;6.306;2024-02-21T01:02:29;21.57;;;13.30;;
18899;SDS011;9582;52.018;6.306;2024-02-21T01:04:56;21.70;;;12.90;;
18899;SDS011;9582;52.018;6.306;2024-02-21T01:07:23;25.83;;;13.27;;
18899;SDS011;9582;52.018;6.306;2024-02-21T01:09:49;20.80;;;12.43;;
18899;SDS011;9582;52.018;6.306;2024-02-21T01:12:17;24.47;;;13.87;;
18899;SDS011;9582;52.018;6.306;2024-02-21T01:14:43;22.63;;;12.57;;
18899;SDS011;9582;52.018;6.306;2024-02-21T01:17:12;23.40;;;13.13;;
18899;SDS011;9582;52.018;6.306;2024-02-21T01:19:39;23.37;;;12.00;;
18899;SDS011;9582;52.018;6.306;2024-02-21T01:22:06;20.27;;;12.20;;
18899;SDS011;9582;52.018;6.306;2024-02-21T01:24:33;22.53;;;12.63;;
18899;SDS011;9582;52.018;6.306;2024-02-21T01:26:59;20.00;;;12.27;;
18899;SDS011;9582;52.018;6.306;2024-02-21T01:29:26;24.97;;;12.77;;
18899;SDS011;9582;52.018;6.306;2024-02-21T01:31:52;25.43;;;13.23;;
18899;SDS011;9582;52.018;6.306;2024-02-21T01:34:20;24.87;;;11.80;;
18899;SDS011;9582;52.018;6.306;2024-02-21T01:36:47;22.33;;;11.73;;
18899;SDS011;9582;52.018;6.306;2024-02-21T01:39:14;18.03;;;10.67;;
18899;SDS011;9582;52.018;6.306;2024-02-21T01:41:40;18.80;;;11.13;;
18899;SDS011;9582;52.018;6.306;2024-02-21T01:44:07;21.80;;;11.70;;
18899;SDS011;9582;52.018;6.306;2024-02-21T01:46:33;20.60;;;11.57;;
18899;SDS011;9582;52.018;6.306;2024-02-21T01:49:01;22.30;;;11.50;;
18899;SDS011;9582;52.018;6.306;2024-02-21T01:51:29;21.17;;;12.30;;
18899;SDS011;9582;52.018;6.306;2024-02-21T01:53:56;20.17;;;12.23;;
18899;SDS011;9582;52.018;6.306;2024-02-21T01:56:24;19.87;;;10.97;;
18899;SDS011;9582;52.018;6.306;2024-02-21T01:58:51;23.17;;;11.20;;
18899;SDS011;9582;52.018;6.306;2024-02-21T02:01:18;21.67;;;11.97;;
18899;SDS011;9582;52.018;6.306;2024-02-21T02:03:45;20.67;;;10.60;;
18899;SDS011;9582;52.018;6.306;2024-02-21T02:06:12;21.17;;;11.43;;
18899;SDS011;9582;52.018;6.306;2024-02-21T02:08:40;19.23;;;11.37;;
18899;SDS011;9582;52.018;6.306;2024-02-21T02:11:08;16.33;;;10.60;;
18899;SDS011;9582;52.018;6.306;2024-02-21T02:13:34;18.73;;;11.10;;
18899;SDS011;9582;52.018;6.306;2024-02-21T02:16:01;20.37;;;10.63;;
18899;SDS011;9582;52.018;6.306;2024-02-21T02:18:28;21.43;;;10.90;;
18899;SDS011;9582;52.018;6.306;2024-02-21T02:20:55;20.10;;;10.93;;
18899;SDS011;9582;52.018;6.306;2024-02-21T02:23:24;26.67;;;11.97;;
18899;SDS011;9582;52.018;6.306;2024-02-21T02:25:51;22.10;;;10.43;;
18899;SDS011;9582;52.018;6.306;2024-02-21T02:28:18;19.87;;;10.67;;
18899;SDS011;9582;52.018;6.306;2024-02-21T02:30:45;22.27;;;10.07;;
18899;SDS011;9582;52.018;6.306;2024-02-21T02:33:11;20.40;;;11.43;;
18899;SDS011;9582;52.018;6.306;2024-02-21T02:35:38;20.93;;;11.40;;
18899;SDS011;9582;52.018;6.306;2024-02-21T02:38:05;20.73;;;11.23;;
18899;SDS011;9582;52.018;6.306;2024-02-21T02:40:34;25.17;;;11.67;;
18899;SDS011;9582;52.018;6.306;2024-02-21T02:43:00;17.47;;;10.67;;
18899;SDS011;9582;52.018;6.306;2024-02-21T02:45:28;23.60;;;11.83;;
18899;SDS011;9582;52.018;6.306;2024-02-21T02:47:56;23.57;;;11.33;;
18899;SDS011;9582;52.018;6.306;2024-02-21T02:50:23;19.07;;;11.40;;
18899;SDS011;9582;52.018;6.306;2024-02-21T02:52:50;21.13;;;10.80;;
18899;SDS011;9582;52.018;6.306;2024-02-21T02:55:17;24.47;;;12.33;;
18899;SDS011;9582;52.018;6.306;2024-02-21T02:57:45;20.47;;;9.93;;
18899;SDS011;9582;52.018;6.306;2024-02-21T03:00:13;20.70;;;10.17;;
18899;SDS011;9582;52.018;6.306;2024-02-21T03:02:41;14.63;;;10.37;;
18899;SDS011;9582;52.018;6.306;2024-02-21T03:05:13;20.07;;;11.47;;
18899;SDS011;9582;52.018;6.306;2024-02-21T03:07:40;19.80;;;9.87;;
18899;SDS011;9582;52.018;6.306;2024-02-21T03:10:07;22.37;;;11.73;;
18899;SDS011;9582;52.018;6.306;2024-02-21T03:12:35;21.43;;;11.63;;
18899;SDS011;9582;52.018;6.306;2024-02-21T03:15:02;19.67;;;10.27;;
18899;SDS011;9582;52.018;6.306;2024-02-21T03:17:28;20.07;;;11.37;;
18899;SDS011;9582;52.018;6.306;2024-02-21T03:19:55;19.87;;;11.40;;
18899;SDS011;9582;52.018;6.306;2024-02-21T03:22:22;16.87;;;11.50;;
18899;SDS011;9582;52.018;6.306;2024-02-21T03:24:48;19.43;;;11.13;;
18899;SDS011;9582;52.018;6.306;2024-02-21T03:27:15;17.83;;;11.50;;
18899;SDS011;9582;52.018;6.306;2024-02-21T03:29:42;18.43;;;9.97;;
18899;SDS011;9582;52.018;6.306;2024-02-21T03:32:10;20.13;;;11.23;;
18899;SDS011;9582;52.018;6.306;2024-02-21T03:34:37;20.73;;;11.03;;
18899;SDS011;9582;52.018;6.306;2024-02-21T03:37:03;22.57;;;11.67;;
18899;SDS011;9582;52.018;6.306;2024-02-21T03:39:30;21.83;;;11.47;;
18899;SDS011;9582;52.018;6.306;2024-02-21T03:41:57;20.47;;;10.70;;
18899;SDS011;9582;52.018;6.306;2024-02-21T03:44:25;21.37;;;10.87;;
18899;SDS011;9582;52.018;6.306;2024-02-21T03:46:52;21.27;;;9.97;;
18899;SDS011;9582;52.018;6.306;2024-02-21T03:49:20;17.53;;;9.47;;
18899;SDS011;9582;52.018;6.306;2024-02-21T03:51:47;13.80;;;9.53;;
18899;SDS011;9582;52.018;6.306;2024-02-21T03:54:14;17.27;;;10.07;;
18899;SDS011;9582;52.018;6.306;2024-02-21T03:56:40;23.37;;;9.93;;
18899;SDS011;9582;52.018;6.306;2024-02-21T03:59:07;13.60;;;9.17;;
18899;SDS011;9582;52.018;6.306;2024-02-21T04:01:34;17.57;;;9.50;;
18899;SDS011;9582;52.018;6.306;2024-02-21T04:04:00;15.93;;;8.80;;
18899;SDS011;9582;52.018;6.306;2024-02-21T04:06:28;16.67;;;9.37;;
18899;SDS011;9582;52.018;6.306;2024-02-21T04:08:55;17.90;;;9.30;;
18899;SDS011;9582;52.018;6.306;2024-02-21T04:11:22;20.13;;;9.87;;
18899;SDS011;9582;52.018;6.306;2024-02-21T04:13:49;18.90;;;9.03;;
18899;SDS011;9582;52.018;6.306;2024-02-21T04:16:16;16.80;;;9.40;;
18899;SDS011;9582;52.018;6.306;2024-02-21T04:18:43;16.27;;;9.30;;
18899;SDS011;9582;52.018;6.306;2024-02-21T04:21:10;18.47;;;9.37;;
18899;SDS011;9582;52.018;6.306;2024-02-21T04:23:41;14.83;;;8.63;;
18899;SDS011;9582;52.018;6.306;2024-02-21T04:26:08;16.37;;;9.00;;
18899;SDS011;9582;52.018;6.306;2024-02-21T04:28:35;14.90;;;8.50;;
18899;SDS011;9582;52.018;6.306;2024-02-21T04:31:01;14.20;;;8.77;;
18899;SDS011;9582;52.018;6.306;2024-02-21T04:33:28;15.40;;;8.27;;
18899;SDS011;9582;52.018;6.306;2024-02-21T04:35:54;21.80;;;9.70;;
18899;SDS011;9582;52.018;6.306;2024-02-21T04:38:21;15.70;;;8.97;;
18899;SDS011;9582;52.018;6.306;2024-02-21T04:40:49;17.40;;;9.47;;
18899;SDS011;9582;52.018;6.306;2024-02-21T04:43:16;15.77;;;9.10;;
18899;SDS011;9582;52.018;6.306;2024-02-21T04:45:42;16.57;;;8.47;;
18899;SDS011;9582;52.018;6.306;2024-02-21T04:48:09;15.97;;;8.80;;
18899;SDS011;9582;52.018;6.306;2024-02-21T04:50:35;16.70;;;8.80;;
18899;SDS011;9582;52.018;6.306;2024-02-21T04:53:02;14.93;;;9.27;;
18899;SDS011;9582;52.018;6.306;2024-02-21T04:55:29;21.17;;;9.57;;
18899;SDS011;9582;52.018;6.306;2024-02-21T04:57:57;13.27;;;8.20;;
18899;SDS011;9582;52.018;6.306;2024-02-21T05:00:23;13.83;;;7.93;;
18899;SDS011;9582;52.018;6.306;2024-02-21T05:02:50;14.97;;;8.90;;
18899;SDS011;9582;52.018;6.306;2024-02-21T05:05:17;17.37;;;8.70;;
18899;SDS011;9582;52.018;6.306;2024-02-21T05:07:43;15.37;;;8.43;;
18899;SDS011;9582;52.018;6.306;2024-02-21T05:10:10;16.27;;;9.03;;
18899;SDS011;9582;52.018;6.306;2024-02-21T05:12:37;11.37;;;7.80;;
18899;SDS011;9582;52.018;6.306;2024-02-21T05:15:05;17.33;;;8.70;;
18899;SDS011;9582;52.018;6.306;2024-02-21T05:17:32;11.57;;;7.90;;
18899;SDS011;9582;52.018;6.306;2024-02-21T05:19:59;13.83;;;8.07;;
18899;SDS011;9582;52.018;6.306;2024-02-21T05:22:26;18.43;;;8.23;;
18899;SDS011;9582;52.018;6.306;2024-02-21T05:24:52;14.30;;;8.20;;
18899;SDS011;9582;52.018;6.306;2024-02-21T05:27:19;14.07;;;7.67;;
18899;SDS011;9582;52.018;6.306;2024-02-21T05:29:46;14.63;;;7.70;;
18899;SDS011;9582;52.018;6.306;2024-02-21T05:32:14;16.63;;;8.37;;
18899;SDS011;9582;52.018;6.306;2024-02-21T05:34:41;15.07;;;8.50;;
18899;SDS011;9582;52.018;6.306;2024-02-21T05:37:08;12.17;;;7.70;;
18899;SDS011;9582;52.018;6.306;2024-02-21T05:39:34;15.63;;;7.97;;
18899;SDS011;9582;52.018;6.306;2024-02-21T05:42:01;12.30;;;7.63;;
18899;SDS011;9582;52.018;6.306;2024-02-21T05:44:27;14.60;;;7.70;;
18899;SDS011;9582;52.018;6.306;2024-02-21T05:46:54;16.47;;;8.00;;
18899;SDS011;9582;52.018;6.306;2024-02-21T05:49:22;11.43;;;7.47;;
18899;SDS011;9582;52.018;6.306;2024-02-21T05:51:49;12.70;;;7.53;;
18899;SDS011;9582;52.018;6.306;2024-02-21T05:54:15;15.33;;;7.70;;
18899;SDS011;9582;52.018;6.306;2024-02-21T05:56:43;12.67;;;7.47;;
18899;SDS011;9582;52.018;6.306;2024-02-21T05:59:11;15.00;;;6.87;;
18899;SDS011;9582;52.018;6.306;2024-02-21T06:01:37;12.70;;;6.87;;
18899;SDS011;9582;52.018;6.306;2024-02-21T06:04:04;16.50;;;7.73;;
18899;SDS011;9582;52.018;6.306;2024-02-21T06:06:32;10.60;;;7.03;;
18899;SDS011;9582;52.018;6.306;2024-02-21T06:08:59;12.40;;;7.03;;
18899;SDS011;9582;52.018;6.306;2024-02-21T06:11:27;14.30;;;6.93;;
18899;SDS011;9582;52.018;6.306;2024-02-21T06:13:54;15.00;;;7.40;;
18899;SDS011;9582;52.018;6.306;2024-02-21T06:16:21;11.47;;;6.40;;
18899;SDS011;9582;52.018;6.306;2024-02-21T06:18:48;14.70;;;7.27;;
18899;SDS011;9582;52.018;6.306;2024-02-21T06:21:14;11.97;;;6.47;;
18899;SDS011;9582;52.018;6.306;2024-02-21T06:23:43;11.67;;;6.53;;
18899;SDS011;9582;52.018;6.306;2024-02-21T06:26:09;16.30;;;6.73;;
18899;SDS011;9582;52.018;6.306;2024-02-21T06:28:36;10.67;;;6.10;;
18899;SDS011;9582;52.018;6.306;2024-02-21T06:31:03;15.17;;;6.80;;
18899;SDS011;9582;52.018;6.306;2024-02-21T06:33:30;10.20;;;6.43;;
18899;SDS011;9582;52.018;6.306;2024-02-21T06:35:56;11.23;;;6.60;;
18899;SDS011;9582;52.018;6.306;2024-02-21T06:38:23;12.00;;;6.60;;
18899;SDS011;9582;52.018;6.306;2024-02-21T06:40:51;12.97;;;7.03;;
18899;SDS011;9582;52.018;6.306;2024-02-21T06:43:19;16.77;;;6.87;;
18899;SDS011;9582;52.018;6.306;2024-02-21T06:45:47;12.43;;;7.33;;
18899;SDS011;9582;52.018;6.306;2024-02-21T06:48:16;13.30;;;7.07;;
18899;SDS011;9582;52.018;6.306;2024-02-21T06:50:44;13.73;;;7.20;;
18899;SDS011;9582;52.018;6.306;2024-02-21T06:53:10;16.37;;;7.87;;
18899;SDS011;9582;52.018;6.306;2024-02-21T06:55:37;15.83;;;8.43;;
18899;SDS011;9582;52.018;6.306;2024-02-21T06:58:05;13.77;;;7.53;;
18899;SDS011;9582;52.018;6.306;2024-02-21T07:00:36;12.27;;;7.70;;
18899;SDS011;9582;52.018;6.306;2024-02-21T07:03:03;15.17;;;8.23;;
18899;SDS011;9582;52.018;6.306;2024-02-21T07:05:30;16.13;;;8.17;;
18899;SDS011;9582;52.018;6.306;2024-02-21T07:07:57;13.53;;;7.70;;
18899;SDS011;9582;52.018;6.306;2024-02-21T07:10:23;16.80;;;8.40;;
18899;SDS011;9582;52.018;6.306;2024-02-21T07:12:50;16.77;;;8.00;;
18899;SDS011;9582;52.018;6.306;2024-02-21T07:15:19;17.07;;;8.87;;
18899;SDS011;9582;52.018;6.306;2024-02-21T07:17:45;14.10;;;8.80;;
18899;SDS011;9582;52.018;6.306;2024-02-21T07:20:12;18.50;;;8.13;;
18899;SDS011;9582;52.018;6.306;2024-02-21T07:22:39;16.50;;;8.30;;
18899;SDS011;9582;52.018;6.306;2024-02-21T07:25:06;14.87;;;8.10;;
18899;SDS011;9582;52.018;6.306;2024-02-21T07:27:33;16.70;;;8.80;;
18899;SDS011;9582;52.018;6.306;2024-02-21T07:29:59;14.77;;;7.50;;
18899;SDS011;9582;52.018;6.306;2024-02-21T07:32:28;17.53;;;8.57;;
18899;SDS011;9582;52.018;6.306;2024-02-21T07:34:54;18.70;;;8.13;;
18899;SDS011;9582;52.018;6.306;2024-02-21T07:37:21;15.30;;;7.80;;
18899;SDS011;9582;52.018;6.306;2024-02-21T07:39:47;16.67;;;8.13;;
18899;SDS011;9582;52.018;6.306;2024-02-21T07:42:14;11.63;;;6.57;;
18899;SDS011;9582;52.018;6.306;2024-02-21T07:44:41;13.20;;;7.37;;
18899;SDS011;9582;52.018;6.306;2024-02-21T07:47:08;13.07;;;7.43;;
18899;SDS011;9582;52.018;6.306;2024-02-21T07:49:42;13.70;;;6.87;;
18899;SDS011;9582;52.018;6.306;2024-02-21T07:52:10;14.90;;;7.37;;
18899;SDS011;9582;52.018;6.306;2024-02-21T07:54:36;13.87;;;7.47;;
18899;SDS011;9582;52.018;6.306;2024-02-21T07:57:03;12.00;;;6.77;;
18899;SDS011;9582;52.018;6.306;2024-02-21T07:59:30;12.17;;;7.83;;
18899;SDS011;9582;52.018;6.306;2024-02-21T08:01:57;13.90;;;7.97;;
18899;SDS011;9582;52.018;6.306;2024-02-21T08:04:23;13.30;;;7.17;;
18899;SDS011;9582;52.018;6.306;2024-02-21T08:06:52;12.97;;;6.50;;
18899;SDS011;9582;52.018;6.306;2024-02-21T08:09:21;14.53;;;6.80;;
18899;SDS011;9582;52.018;6.306;2024-02-21T08:11:48;16.80;;;8.03;;
18899;SDS011;9582;52.018;6.306;2024-02-21T08:14:15;13.90;;;7.10;;
18899;SDS011;9582;52.018;6.306;2024-02-21T08:16:42;14.40;;;7.57;;
18899;SDS011;9582;52.018;6.306;2024-02-21T08:19:09;13.63;;;7.37;;
18899;SDS011;9582;52.018;6.306;2024-02-21T08:21:37;14.20;;;7.83;;
18899;SDS011;9582;52.018;6.306;2024-02-21T08:24:05;16.17;;;8.00;;
18899;SDS011;9582;52.018;6.306;2024-02-21T08:26:32;13.93;;;8.43;;
18899;SDS011;9582;52.018;6.306;2024-02-21T08:28:58;14.80;;;7.83;;
18899;SDS011;9582;52.018;6.306;2024-02-21T08:31:26;17.80;;;7.90;;
18899;SDS011;9582;52.018;6.306;2024-02-21T08:33:56;19.30;;;8.40;;
18899;SDS011;9582;52.018;6.306;2024-02-21T08:36:27;12.60;;;7.93;;
18899;SDS011;9582;52.018;6.306;2024-02-21T08:38:54;14.03;;;8.17;;
18899;SDS011;9582;52.018;6.306;2024-02-21T08:41:22;16.13;;;7.83;;
18899;SDS011;9582;52.018;6.306;2024-02-21T08:43:49;15.33;;;8.40;;
18899;SDS011;9582;52.018;6.306;2024-02-21T08:46:16;15.80;;;8.30;;
18899;SDS011;9582;52.018;6.306;2024-02-21T08:48:43;16.73;;;7.53;;
18899;SDS011;9582;52.018;6.306;2024-02-21T08:51:11;11.23;;;7.17;;
18899;SDS011;9582;52.018;6.306;2024-02-21T08:53:38;12.93;;;7.73;;
18899;SDS011;9582;52.018;6.306;2024-02-21T08:56:05;13.57;;;7.17;;
18899;SDS011;9582;52.018;6.306;2024-02-21T08:58:34;15.00;;;7.73;;
18899;SDS011;9582;52.018;6.306;2024-02-21T09:01:01;13.50;;;7.63;;
18899;SDS011;9582;52.018;6.306;2024-02-21T09:03:30;13.63;;;7.33;;
18899;SDS011;9582;52.018;6.306;2024-02-21T09:05:57;14.20;;;7.77;;
18899;SDS011;9582;52.018;6.306;2024-02-21T09:08:24;12.20;;;7.23;;
18899;SDS011;9582;52.018;6.306;2024-02-21T09:10:51;13.13;;;7.47;;
18899;SDS011;9582;52.018;6.306;2024-02-21T09:13:18;12.93;;;7.10;;
18899;SDS011;9582;52.018;6.306;2024-02-21T09:15:46;12.73;;;7.00;;
18899;SDS011;9582;52.018;6.306;2024-02-21T09:18:13;11.37;;;7.43;;
18899;SDS011;9582;52.018;6.306;2024-02-21T09:20:40;12.50;;;7.37;;
18899;SDS011;9582;52.018;6.306;2024-02-21T09:23:07;10.80;;;6.83;;
18899;SDS011;9582;52.018;6.306;2024-02-21T09:25:33;11.83;;;7.33;;
18899;SDS011;9582;52.018;6.306;2024-02-21T09:28:01;9.87;;;6.60;;
18899;SDS011;9582;52.018;6.306;2024-02-21T09:30:28;13.83;;;6.97;;
18899;SDS011;9582;52.018;6.306;2024-02-21T09:32:56;10.40;;;6.63;;
18899;SDS011;9582;52.018;6.306;2024-02-21T09:35:24;12.17;;;6.83;;
18899;SDS011;9582;52.018;6.306;2024-02-21T09:37:51;12.20;;;6.40;;
18899;SDS011;9582;52.018;6.306;2024-02-21T09:40:18;10.83;;;6.10;;
18899;SDS011;9582;52.018;6.306;2024-02-21T09:42:46;9.70;;;6.53;;
18899;SDS011;9582;52.018;6.306;2024-02-21T09:45:15;10.10;;;6.27;;
18899;SDS011;9582;52.018;6.306;2024-02-21T09:47:50;9.63;;;6.60;;
18899;SDS011;9582;52.018;6.306;2024-02-21T09:50:26;11.13;;;6.93;;
18899;SDS011;9582;52.018;6.306;2024-02-21T09:52:55;12.00;;;6.80;;
18899;SDS011;9582;52.018;6.306;2024-02-21T09:55:22;11.63;;;7.47;;
18899;SDS011;9582;52.018;6.306;2024-02-21T09:57:50;10.63;;;6.30;;
18899;SDS011;9582;52.018;6.306;2024-02-21T10:00:18;10.33;;;7.20;;
18899;SDS011;9582;52.018;6.306;2024-02-21T10:02:47;10.00;;;6.53;;
18899;SDS011;9582;52.018;6.306;2024-02-21T10:05:14;11.20;;;6.87;;
18899;SDS011;9582;52.018;6.306;2024-02-21T10:07:42;10.60;;;6.70;;
18899;SDS011;9582;52.018;6.306;2024-02-21T10:10:09;8.10;;;6.20;;
18899;SDS011;9582;52.018;6.306;2024-02-21T10:12:36;11.57;;;6.70;;
18899;SDS011;9582;52.018;6.306;2024-02-21T10:15:02;9.70;;;6.13;;
18899;SDS011;9582;52.018;6.306;2024-02-21T10:17:30;12.97;;;6.50;;
18899;SDS011;9582;52.018;6.306;2024-02-21T10:20:06;9.23;;;6.43;;
18899;SDS011;9582;52.018;6.306;2024-02-21T10:22:34;10.20;;;6.20;;
18899;SDS011;9582;52.018;6.306;2024-02-21T10:25:08;9.47;;;5.83;;
18899;SDS011;9582;52.018;6.306;2024-02-21T10:27:34;7.93;;;5.33;;
18899;SDS011;9582;52.018;6.306;2024-02-21T10:30:02;8.20;;;5.57;;
18899;SDS011;9582;52.018;6.306;2024-02-21T10:32:29;10.23;;;5.27;;
18899;SDS011;9582;52.018;6.306;2024-02-21T10:35:00;10.23;;;5.80;;
18899;SDS011;9582;52.018;6.306;2024-02-21T10:37:27;8.47;;;5.70;;
18899;SDS011;9582;52.018;6.306;2024-02-21T10:39:54;9.07;;;4.80;;
18899;SDS011;9582;52.018;6.306;2024-02-21T10:42:23;9.20;;;5.40;;
18899;SDS011;9582;52.018;6.306;2024-02-21T10:44:56;6.20;;;4.67;;
18899;SDS011;9582;52.018;6.306;2024-02-21T10:47:29;6.07;;;4.47;;
18899;SDS011;9582;52.018;6.306;2024-02-21T10:50:03;7.50;;;4.37;;
18899;SDS011;9582;52.018;6.306;2024-02-21T10:52:32;8.77;;;4.60;;
18899;SDS011;9582;52.018;6.306;2024-02-21T10:55:14;5.50;;;4.40;;
18899;SDS011;9582;52.018;6.306;2024-02-21T10:57:49;5.87;;;4.00;;
18899;SDS011;9582;52.018;6.306;2024-02-21T11:00:17;4.77;;;4.00;;
18899;SDS011;9582;52.018;6.306;2024-02-21T11:02:44;7.90;;;4.70;;
18899;SDS011;9582;52.018;6.306;2024-02-21T11:05:12;7.53;;;4.60;;
18899;SDS011;9582;52.018;6.306;2024-02-21T11:07:41;8.03;;;4.90;;
18899;SDS011;9582;52.018;6.306;2024-02-21T11:10:19;8.30;;;5.03;;
18899;SDS011;9582;52.018;6.306;2024-02-21T11:12:47;9.20;;;5.47;;
18899;SDS011;9582;52.018;6.306;2024-02-21T11:15:15;7.67;;;5.17;;
18899;SDS011;9582;52.018;6.306;2024-02-21T11:17:42;8.20;;;5.60;;
18899;SDS011;9582;52.018;6.306;2024-02-21T11:20:20;9.87;;;5.50;;
18899;SDS011;9582;52.018;6.306;2024-02-21T11:22:57;8.50;;;6.00;;
18899;SDS011;9582;52.018;6.306;2024-02-21T11:25:24;9.93;;;5.97;;
18899;SDS011;9582;52.018;6.306;2024-02-21T11:27:58;10.93;;;6.37;;
18899;SDS011;9582;52.018;6.306;2024-02-21T11:30:27;9.87;;;6.40;;
18899;SDS011;9582;52.018;6.306;2024-02-21T11:32:59;8.77;;;5.80;;
18899;SDS011;9582;52.018;6.306;2024-02-21T11:35:30;9.70;;;6.33;;
18899;SDS011;9582;52.018;6.306;2024-02-21T11:38:07;9.13;;;5.53;;
18899;SDS011;9582;52.018;6.306;2024-02-21T11:40:35;7.63;;;4.97;;
18899;SDS011;9582;52.018;6.306;2024-02-21T11:43:05;10.60;;;4.93;;
18899;SDS011;9582;52.018;6.306;2024-02-21T11:45:33;8.70;;;5.67;;
18899;SDS011;9582;52.018;6.306;2024-02-21T11:48:00;10.67;;;5.63;;
18899;SDS011;9582;52.018;6.306;2024-02-21T11:50:28;10.87;;;5.60;;
18899;SDS011;9582;52.018;6.306;2024-02-21T11:52:56;14.60;;;6.17;;
18899;SDS011;9582;52.018;6.306;2024-02-21T11:55:23;9.97;;;5.40;;
18899;SDS011;9582;52.018;6.306;2024-02-21T11:57:50;10.93;;;6.23;;
18899;SDS011;9582;52.018;6.306;2024-02-21T12:00:17;8.57;;;5.20;;
18899;SDS011;9582;52.018;6.306;2024-02-21T12:02:47;7.50;;;4.90;;
18899;SDS011;9582;52.018;6.306;2024-02-21T12:05:15;11.23;;;5.50;;
18899;SDS011;9582;52.018;6.306;2024-02-21T12:07:42;9.80;;;5.97;;
18899;SDS011;9582;52.018;6.306;2024-02-21T12:10:09;7.93;;;5.87;;
18899;SDS011;9582;52.018;6.306;2024-02-21T12:12:36;15.07;;;6.40;;
18899;SDS011;9582;52.018;6.306;2024-02-21T12:15:04;12.73;;;6.10;;
18899;SDS011;9582;52.018;6.306;2024-02-21T12:17:32;9.53;;;5.73;;
18899;SDS011;9582;52.018;6.306;2024-02-21T12:20:01;9.90;;;6.03;;
18899;SDS011;9582;52.018;6.306;2024-02-21T12:22:30;10.33;;;5.73;;
18899;SDS011;9582;52.018;6.306;2024-02-21T12:24:58;10.27;;;5.23;;
18899;SDS011;9582;52.018;6.306;2024-02-21T12:27:25;11.00;;;5.47;;
18899;SDS011;9582;52.018;6.306;2024-02-21T12:29:51;10.97;;;6.00;;
18899;SDS011;9582;52.018;6.306;2024-02-21T12:32:18;12.30;;;5.70;;
18899;SDS011;9582;52.018;6.306;2024-02-21T12:34:45;9.13;;;5.47;;
18899;SDS011;9582;52.018;6.306;2024-02-21T12:37:13;7.63;;;4.90;;
18899;SDS011;9582;52.018;6.306;2024-02-21T12:39:41;9.33;;;5.30;;
18899;SDS011;9582;52.018;6.306;2024-02-21T12:42:07;9.57;;;5.10;;
18899;SDS011;9582;52.018;6.306;2024-02-21T12:44:36;8.17;;;5.27;;
18899;SDS011;9582;52.018;6.306;2024-02-21T12:47:03;8.07;;;4.77;;
18899;SDS011;9582;52.018;6.306;2024-02-21T12:49:30;12.80;;;5.30;;
18899;SDS011;9582;52.018;6.306;2024-02-21T12:51:57;10.97;;;5.13;;
18899;SDS011;9582;52.018;6.306;2024-02-21T12:54:25;11.00;;;5.30;;
18899;SDS011;9582;52.018;6.306;2024-02-21T12:56:52;9.30;;;4.73;;
18899;SDS011;9582;52.018;6.306;2024-02-21T12:59:18;7.07;;;4.77;;
18899;SDS011;9582;52.018;6.306;2024-02-21T13:01:46;7.87;;;4.83;;
18899;SDS011;9582;52.018;6.306;2024-02-21T13:04:12;7.47;;;4.80;;
18899;SDS011;9582;52.018;6.306;2024-02-21T13:06:39;10.00;;;5.03;;
18899;SDS011;9582;52.018;6.306;2024-02-21T13:09:06;8.07;;;5.10;;
18899;SDS011;9582;52.018;6.306;2024-02-21T13:11:37;8.37;;;4.87;;
18899;SDS011;9582;52.018;6.306;2024-02-21T13:14:04;8.50;;;4.97;;
18899;SDS011;9582;52.018;6.306;2024-02-21T13:16:30;7.47;;;4.73;;
18899;SDS011;9582;52.018;6.306;2024-02-21T13:18:59;10.63;;;4.83;;
18899;SDS011;9582;52.018;6.306;2024-02-21T13:21:25;8.00;;;5.07;;
18899;SDS011;9582;52.018;6.306;2024-02-21T13:23:52;8.43;;;4.60;;
18899;SDS011;9582;52.018;6.306;2024-02-21T13:26:19;12.90;;;5.30;;
18899;SDS011;9582;52.018;6.306;2024-02-21T13:28:47;11.23;;;5.30;;
18899;SDS011;9582;52.018;6.306;2024-02-21T13:31:14;7.67;;;5.33;;
18899;SDS011;9582;52.018;6.306;2024-02-21T13:33:41;8.23;;;4.57;;
18899;SDS011;9582;52.018;6.306;2024-02-21T13:36:09;12.03;;;5.43;;
18899;SDS011;9582;52.018;6.306;2024-02-21T13:38:36;9.13;;;4.80;;
18899;SDS011;9582;52.018;6.306;2024-02-21T13:41:04;10.00;;;4.73;;
18899;SDS011;9582;52.018;6.306;2024-02-21T13:43:31;9.67;;;5.10;;
18899;SDS011;9582;52.018;6.306;2024-02-21T13:45:59;10.33;;;5.33;;
18899;SDS011;9582;52.018;6.306;2024-02-21T13:48:27;10.47;;;5.23;;
18899;SDS011;9582;52.018;6.306;2024-02-21T13:50:55;9.27;;;5.17;;
18899;SDS011;9582;52.018;6.306;2024-02-21T13:53:22;10.07;;;5.00;;
18899;SDS011;9582;52.018;6.306;2024-02-21T13:55:48;8.33;;;5.37;;
18899;SDS011;9582;52.018;6.306;2024-02-21T13:58:15;9.97;;;5.20;;
18899;SDS011;9582;52.018;6.306;2024-02-21T14:00:42;11.10;;;5.67;;
18899;SDS011;9582;52.018;6.306;2024-02-21T14:03:10;9.07;;;5.10;;
18899;SDS011;9582;52.018;6.306;2024-02-21T14:05:37;10.68;;;5.22;;
18899;SDS011;9582;52.018;6.306;2024-02-21T14:08:04;9.20;;;4.87;;
18899;SDS011;9582;52.018;6.306;2024-02-21T14:10:32;7.75;;;4.93;;
18899;SDS011;9582;52.018;6.306;2024-02-21T14:12:58;8.60;;;4.60;;
18899;SDS011;9582;52.018;6.306;2024-02-21T14:15:25;10.20;;;4.87;;
18899;SDS011;9582;52.018;6.306;2024-02-21T14:17:52;9.90;;;4.97;;
18899;SDS011;9582;52.018;6.306;2024-02-21T14:20:21;12.07;;;5.13;;
18899;SDS011;9582;52.018;6.306;2024-02-21T14:22:48;6.97;;;4.50;;
18899;SDS011;9582;52.018;6.306;2024-02-21T14:25:14;9.60;;;4.57;;
18899;SDS011;9582;52.018;6.306;2024-02-21T14:27:41;7.83;;;5.00;;
18899;SDS011;9582;52.018;6.306;2024-02-21T14:30:09;8.80;;;4.53;;
18899;SDS011;9582;52.018;6.306;2024-02-21T14:32:36;9.63;;;4.57;;
18899;SDS011;9582;52.018;6.306;2024-02-21T14:35:03;10.07;;;5.30;;
18899;SDS011;9582;52.018;6.306;2024-02-21T14:37:32;10.67;;;4.80;;
18899;SDS011;9582;52.018;6.306;2024-02-21T14:39:59;10.20;;;4.47;;
18899;SDS011;9582;52.018;6.306;2024-02-21T14:42:26;5.80;;;4.03;;
18899;SDS011;9582;52.018;6.306;2024-02-21T14:44:53;6.53;;;4.43;;
18899;SDS011;9582;52.018;6.306;2024-02-21T14:47:28;7.67;;;4.83;;
18899;SDS011;9582;52.018;6.306;2024-02-21T14:49:55;7.10;;;4.27;;